Ride Results

Wunderful Widgee (18-07-2010)
Ride distance: 80.0 km

Outcomes - Wunderful Widgee (18-07-2010)
Division No. of Entries Retired / DNE Completed Withdrawn Ineligible V/O Percentage Completed
HW 18 - 16 1 - 1 88.89%
MW 37 - 29 2 - 6 78.38%
LW 29 - 26 - - 3 89.66%
JN 15 - 13 1 - 1 86.67%
Totals 99 - 84 4 - 11 84.85%
Results - Wunderful Widgee (18-07-2010)
No. Rider Horse Place Time Leg Speeds Total
Km/Hr
H/R bpm
Heavyweight
112 Niels Lochtenberg Matta Mia Arad 1 (BC) 5:01:00 16.7, 15.1 15.95 38, 44, 46 (Avg:45)
148 Paul Lengronne Cherox Kariim 2 5:18:00 17.1, 13.4 15.09 31, 47, 44 (Avg:45)
158 Peter Spottswood Glenewan Dusk 3 5:46:00 17.5, 11.4 13.87 32, 38, 55 (Avg:46)
208 Chris Nichols Bashan Memphis 4 6:04:00 13.1, 13.1 13.19 38, 37, 45 (Avg:41)
211 Robyn Weaver Esau 4 6:04:00 13.2, 13.1 13.19 37, 42, 48 (Avg:45)
216 Bob Sample S'Shaada Quiddich 6 6:29:00 13.1, 11.6 12.34 30, 51, 49 (Avg:50)
228 Stan Zischke Glenewan Pebble 7 6:43:00 11.8, 11.9 11.91 33, 42, 53 (Avg:47)
132 Danielle Cullen Matta Mia Kizil 8 6:59:00 12.9, 10.3 11.46 30, 37, 44 (Avg:40)
224 Mick Hill Kirrong Khalaan 8 6:59:00 11.8, 11.0 11.46 31, 42, 44 (Avg:43)
204 Tony Bateman Cheval Arabe Daybu 10 7:00:00 13.2, 10.0 11.43 38, 38, 56 (Avg:47)
144 Ven Grasso Mario 11 7:07:00 12.6, 10.1 11.24 32, 41, 49 (Avg:45)
234 Ken Gordon Cameo Favorita 12 7:26:00 13.1, 9.1 10.76 31, 33, 36 (Avg:34)
233 Gavin Bartlett Hazeldean Estina 13 7:56:00 12.3, 8.5 10.08 39, 49, 55 (Avg:52)
161 Delma Clements Kynnum Park Shaniko 14 8:04:00 12.9, 8.0 9.92 29, 42, 46 (Avg:44)
205 Jeff Goltz Balaam Park Countess El Shahwan 15 8:27:00 10.7, 8.4 9.47 36, 41, 45 (Avg:43)
231 Emma Quilter Kholonial Amelia 16 8:55:00 10.9, 7.6 8.97 30, 40, 44 (Avg:42)
136 David Pembroke Mt Eerwah Silverado Lame L2 0:00:00 12.9, 10.3 - 27, 38, 40 (Avg:39)
226 Eva Levacsics Heatherbrook Nightrider Withdrawn P/R 0:00:00 - - 35
Middleweight
122 Akhmed Pshunov Aloha Spartacus 1 (BC) 3:57:00 19.1, 21.4 20.25 34, 45, 50 (Avg:47)
127 Matthew Sample Brookleigh Ricardo 2 4:06:00 18.0, 21.2 19.51 32, 48, 44 (Avg:46)
107 Fiona Fenech Anzaq 3 4:15:00 19.5, 18.1 18.82 35, 40, 46 (Avg:43)
123 Gayle Holmes Captain's Creek Rupert 4 4:23:00 18.1, 18.3 18.25 37, 49, 47 (Avg:48)
118 Cathie Bruce Lanamere Indianna 5 6:03:00 16.9, 10.8 13.22 38, 40, 52 (Avg:46)
213 Fahad suliaiman Al Azri Sundust Flame 6 6:04:00 12.9, 13.4 13.19 36, 50, 52 (Avg:51)
223 Bridget Macintyre Poede Ashanti 7 6:29:00 13.1, 11.5 12.34 35, 42, 52 (Avg:47)
114 Jackie Gilks Reid River Reflectshine 8 6:30:00 13.5, 11.2 12.31 35, 45, 48 (Avg:46)
152 Andrea Laws-King Razorback Love Song 9 7:02:00 12.6, 10.3 11.37 31, 40, 40 (Avg:40)
150 Sasha Laws-King Bint Shah Dara 9 7:02:00 12.6, 10.3 11.37 36, 37, 38 (Avg:37)
240 Naomi Djuric Karanji Kobalt 11 7:06:00 11.8, 10.7 11.27 28, 34, 40 (Avg:37)
236 Marion Lengronne Windz of Change 11 7:06:00 11.8, 10.7 11.27 43, 42, 42 (Avg:42)
244 Ute Jordan Anijoa Delilah 13 7:14:00 13.1, 9.5 11.06 38, 47, 45 (Avg:46)
160 Pierre DeWit High Society te 14 7:23:00 11.3, 10.3 10.84 37, 45, 46 (Avg:45)
235 Billie Barron Cameo Mazquerade 15 7:26:00 12.9, 9.1 10.76 50, 47, 44 (Avg:45)
159 Bridget Nottle Justine te 16 7:37:00 11.1, 9.9 10.50 30, 40, 41 (Avg:40)
102 Ann Raabe Nangamba Alisaar 17 7:56:00 12.3, 8.5 10.08 30, 39, 44 (Avg:41)
203 Tania Sanderson Dark Century 17 7:56:00 12.3, 8.5 10.08 30, 38, 49 (Avg:43)
104 Bronwyn James Mt Eerwah Shazaam 19 8:00:00 11.5, 8.8 10.00 35, 38, 46 (Avg:42)
206 Kylie Toole Jum Jum Simply Magic 19 8:00:00 11.5, 8.8 10.00 32, 42, 53 (Avg:47)
214 Sarah Love Fun 4 Us 21 8:01:00 10.9, 9.1 9.98 34, 43, 49 (Avg:46)
220 Alan Roberts Splendacrest Zayante 21 8:01:00 11.5, 8.7 9.98 41, 42, 47 (Avg:44)
153 Olga Bartlett Cingala Royalle 23 8:03:00 10.0, 9.7 9.94 34, 40, 43 (Avg:41)
217 Ruth Dixon El Romero 23 8:03:00 10.0, 9.7 9.94 30, 38, 58 (Avg:48)
210 Shelley Chapman Jayhal Flash 25 8:28:00 9.5, 9.3 9.45 36, 38, 43 (Avg:40)
227 Chelsea Moore Mt Eerwah Silver Selene 25 8:28:00 10.3, 8.6 9.45 33, 41, 44 (Avg:42)
238 Warwick Toft Bremervale Shahrastani 27 8:35:00 10.3, 8.4 9.32 35, 40, 45 (Avg:42)
156 Helen Toft Bremervale Shadowfax 27 8:35:00 10.3, 8.4 9.32 30, 39, 45 (Avg:42)
230 Neil Kelly Fortaleza Loki 29 8:55:00 10.9, 7.6 8.97 25, 35, 44 (Avg:39)
134 Debbie Edwards Agape Evezra Lame L2 0:00:00 13.5, 12.8 - 41, 44, 53 (Avg:48)
232 Kim Schusdzarra Bashan Phoenix Lame L2 0:00:00 13.2, 13.1 - 42, 42, 49 (Avg:45)
209 Jacinta Stubbings Bashan Nikodemus Lame L2 0:00:00 13.1, 13.1 - 48, 47, 51 (Avg:49)
128 Caroline Fitzgerald Lanamere Roulette Lame L1 0:00:00 16.9 - 30, 44 (Avg:44)
242 Cheryl Gaedtke Bacchante Silver Metabolics moderate L1 0:00:00 15.6 - 30, 38 (Avg:38)
135 Robyn Pembroke Mt Eerwah Silver Arafina Withdrawn L1 0:00:00 - - 25, 32 (Avg:32)
125 Madeleine Fisher Duray Djarq Lame P/R 0:00:00 - - 39
117 Bec Miller Larabi Sid Simba'ar Withdrawn P/R 0:00:00 - - 36
Lightweight
126 Jess Langridge Clovelly Park Tazeem 1 (BC) 4:06:15 18.0, 21.1 19.49 28, 42, 48 (Avg:45)
101 Kaylea Maher Larabi Rummanni 2 4:27:00 18.0, 17.9 17.98 28, 40, 48 (Avg:44)
133 Clare Fleming Splendacrest Superb 3 4:51:00 19.5, 14.2 16.49 35, 46, 48 (Avg:47)
141 Kym Dyball Anniversary Wish 4 5:00:00 17.9, 14.4 16.00 34, 44, 44 (Avg:44)
139 Karen Mendoza Allyndah Expectation 5 5:52:00 15.2, 12.3 13.64 26, 41, 49 (Avg:45)
138 Sue Sutcliffe De Sharvell Sharkeem 5 5:52:00 15.2, 12.3 13.64 33, 41, 44 (Avg:42)
151 Jennifer Annetts Churinga Goldfire 7 6:04:00 13.3, 13.0 13.19 33, 40, 52 (Avg:46)
146 Tylana Woodward Stussy 7 6:04:00 14.6, 11.9 13.19 36, 41, 46 (Avg:43)
120 Sayed mohammed Abbas Lenny 9 6:11:00 13.3, 12.5 12.94 35, 45, 48 (Avg:46)
201 Anne Jones Carnarvon Cavalier 10 6:23:00 12.7, 12.3 12.53 30, 43, 41 (Avg:42)
229 Sally Genninges Maximal Phoenix Sterling 11 6:27:00 12.9, 11.8 12.40 35, 41, 55 (Avg:48)
215 Saasha Grogan Cajun 12 6:29:00 13.1, 11.6 12.34 42, 45, 51 (Avg:48)
113 Leigh Rich Leondon Maritz 13 6:30:00 13.5, 11.2 12.31 27, 39, 39 (Avg:39)
121 Cathy Herve Hilbrae Maxine 14 6:33:00 13.5, 11.1 12.21 38, 39, 41 (Avg:40)
108 Jocelyn Barnes Trinity 15 6:36:00 12.9, 11.4 12.12 37, 38, 44 (Avg:41)
110 Janelle Weise Esscort's True Confessions 15 6:36:00 12.9, 11.4 12.12 31, 35, 46 (Avg:40)
225 Karen Hill Midu Magella 17 6:59:00 11.8, 11.0 11.46 32, 44, 39 (Avg:41)
145 Amanda Powell Alamo Minelli 18 7:07:00 12.6, 10.1 11.24 37, 45, 50 (Avg:47)
245 Corinne Kempter Topaz 19 7:08:00 13.1, 9.7 11.21 32, 39, 42 (Avg:40)
237 Janelle Taylor Glenewan Scout 19 7:08:00 13.1, 9.7 11.21 28, 36, 42 (Avg:39)
103 Mary Sims Bonnie Rose 21 7:27:00 12.7, 9.2 10.74 37, 43, 46 (Avg:44)
131 Robin Young Melawondi 21 7:27:00 12.3, 9.4 10.74 28, 35, 45 (Avg:40)
243 Jessica Aistrope Isabelle te 23 7:37:00 11.1, 9.9 10.50 30, 34, 40 (Avg:37)
219 Kirsty Owen Maf-Ue Khaio 24 8:01:00 11.5, 8.7 9.98 32, 43, 48 (Avg:45)
221 Sean Crew Linslea Park Sir Lancelot 25 8:28:00 10.3, 8.6 9.45 33, 46, 44 (Avg:45)
222 Carla Jones Mt Eerwah Bay Cavalier 25 8:28:00 10.3, 8.6 9.45 33, 37, 39 (Avg:38)
149 Judy Battams Landmark Sarafeena Lame L2 0:00:00 17.9, 12.4 - 40, 44, 47 (Avg:45)
106 Amaya Thomas Jessie Ima James Lame L1 0:00:00 19.5 - 36, 42 (Avg:42)
109 Karen Winkel Tonique Lame L1 0:00:00 19.5 - 34, 46 (Avg:46)
Junior
124 David Anderson Jnr Captain Creek Tall Boy 1 3:57:00 19.1, 21.4 20.25 40, 44, 49 (Avg:46)
130 Jamie Green Brookleigh Callista 2 4:17:00 18.0, 19.3 18.68 32, 49, 48 (Avg:48)
129 Tasha Ellison Chaswyck The Maverick 3 (BC) 4:23:15 17.0, 19.6 18.23 34, 42, 42 (Avg:42)
143 Sharn Brooker Hirstglen Texas Rose 4 6:04:00 14.5, 12.0 13.19 36, 44, 45 (Avg:44)
142 Sam Brooker Hirstglen Zanadu 4 6:04:00 14.5, 12.0 13.19 28, 38, 43 (Avg:40)
218 Jessyca Dakin Bashan Aspin 4 6:04:00 13.2, 13.1 13.19 41, 44, 52 (Avg:48)
246 Kevin Kempter Samson 7 7:14:00 13.1, 9.5 11.06 32, 41, 46 (Avg:43)
140 Timothy Sutcliffe Sahala Azure Rose 8 7:23:00 10.9, 10.7 10.84 33, 40, 40 (Avg:40)
157 Tia Cunnington Wattles Marcelle 9 8:27:00 11.6, 7.9 9.47 32, 43, 51 (Avg:47)
212 Renae Chapman Bellarine Frodo 10 8:28:00 9.5, 9.3 9.45 30, 36, 37 (Avg:36)
105 Shania Chapman Sahala Astronomer 10 8:28:00 9.5, 9.3 9.45 25, 33, 43 (Avg:38)
239 Georgia Toft Bremervale Savannah 12 8:35:00 10.3, 8.4 9.32 34, 43, 45 (Avg:44)
155 Madeline Toft Bremervale Arrogance 12 8:35:00 10.3, 8.4 9.32 36, 40, 41 (Avg:40)
137 Cindy Williams Luack Kayla Lame L1 0:00:00 11.8 - 30, 47 (Avg:47)
116 Jasmine Shields Sundown Park Desert Storm Withdrawn P/R 0:00:00 - - 38